Time;durP1;ratioP1;P1;durP2;ratioP2;P2;SDS_P1;SDS_P2;PMS_P1;PMS_P2;Temp;Humidity;BMP_temperature;BMP_pressure;BME280_temperature;BME280_humidity;BME280_pressure;Samples;Min_cycle;Max_cycle;Signal;HPM_P1;HPM_P2
2023/05/02 00:00:30;;;;;;;19.98;9.25;;;11.80;99.90;;;;;;5040526;28;20043;-56
2023/05/02 00:02:56;;;;;;;15.70;8.32;;;11.80;99.90;;;;;;5047248;28;20471;-57
2023/05/02 00:05:22;;;;;;;16.63;7.97;;;11.80;99.90;;;;;;5058601;28;20025;-56
2023/05/02 00:07:49;;;;;;;15.98;9.15;;;11.70;99.90;;;;;;5053459;28;20033;-56
2023/05/02 00:10:16;;;;;;;13.93;7.05;;;11.70;99.90;;;;;;5048290;28;20075;-57
2023/05/02 00:12:42;;;;;;;17.98;8.00;;;11.70;99.90;;;;;;5056839;28;20132;-57
2023/05/02 00:15:08;;;;;;;18.23;8.52;;;11.60;99.90;;;;;;5060083;28;20041;-56
2023/05/02 00:17:34;;;;;;;16.92;7.65;;;11.60;99.90;;;;;;5057329;28;20025;-57
2023/05/02 00:20:00;;;;;;;10.63;6.20;;;11.60;99.90;;;;;;5060060;28;20063;-56
2023/05/02 00:22:27;;;;;;;11.90;6.07;;;11.60;99.90;;;;;;5059120;28;20041;-56
2023/05/02 00:24:57;;;;;;;10.70;5.10;;;11.60;99.90;;;;;;5072926;28;20056;-57
2023/05/02 00:27:23;;;;;;;15.00;5.53;;;11.50;99.90;;;;;;5055280;28;20052;-57
2023/05/02 00:29:49;;;;;;;8.98;5.05;;;11.40;99.90;;;;;;5049825;28;20054;-57
2023/05/02 00:32:14;;;;;;;12.05;4.75;;;11.30;99.90;;;;;;5046474;28;20037;-57
2023/05/02 00:34:40;;;;;;;11.68;4.47;;;11.30;99.90;;;;;;5052047;28;20046;-57
2023/05/02 00:37:06;;;;;;;13.13;5.00;;;11.20;99.90;;;;;;5041505;28;20049;-56
2023/05/02 00:39:34;;;;;;;13.05;4.28;;;11.20;99.90;;;;;;5043557;28;20481;-57
2023/05/02 00:42:00;;;;;;;10.27;4.53;;;11.10;99.90;;;;;;5058398;28;20056;-57
2023/05/02 00:44:27;;;;;;;14.60;3.90;;;10.50;99.90;;;;;;5059066;28;20196;-57
2023/05/02 00:46:54;;;;;;;11.43;3.78;;;11.10;99.90;;;;;;5048171;28;20072;-57
2023/05/02 00:49:19;;;;;;;13.55;4.10;;;11.10;99.90;;;;;;5038809;28;20041;-56
2023/05/02 00:51:45;;;;;;;11.75;3.70;;;11.00;99.90;;;;;;5042349;28;20176;-57
2023/05/02 00:54:14;;;;;;;12.85;3.30;;;11.00;99.90;;;;;;5059844;28;20037;-57
2023/05/02 00:56:40;;;;;;;9.57;3.15;;;11.00;99.90;;;;;;5046783;28;20096;-56
2023/05/02 00:59:07;;;;;;;12.85;3.42;;;10.90;99.90;;;;;;5039872;28;20080;-57
2023/05/02 01:01:42;;;;;;;9.18;3.28;;;10.90;99.90;;;;;;5052413;28;20047;-57
2023/05/02 01:04:47;;;;;;;8.52;3.50;;;10.80;99.90;;;;;;5058170;28;20071;-56
2023/05/02 01:07:31;;;;;;;13.35;3.47;;;10.90;99.90;;;;;;5042694;28;20060;-57
2023/05/02 01:10:25;;;;;;;11.48;3.63;;;10.80;99.90;;;;;;5045227;28;20121;-56
2023/05/02 01:13:12;;;;;;;14.02;3.10;;;10.80;99.90;;;;;;5058226;28;20496;-56
2023/05/02 01:15:40;;;;;;;12.45;3.47;;;10.80;99.90;;;;;;5058666;28;20726;-57
2023/05/02 01:18:09;;;;;;;10.07;3.25;;;10.80;99.90;;;;;;5043945;28;20041;-57
2023/05/02 01:20:40;;;;;;;9.80;3.53;;;10.80;99.90;;;;;;5043269;28;20064;-57
2023/05/02 01:23:12;;;;;;;9.27;4.00;;;10.80;99.90;;;;;;5043381;28;20038;-57
2023/05/02 01:26:06;;;;;;;14.52;3.25;;;10.70;99.90;;;;;;5041914;28;20040;-57
2023/05/02 01:28:41;;;;;;;11.88;3.13;;;10.70;99.90;;;;;;5045424;28;20045;-56
2023/05/02 01:31:07;;;;;;;15.95;3.72;;;10.70;99.90;;;;;;5043399;28;20256;-56
2023/05/02 01:33:35;;;;;;;8.27;3.13;;;10.70;99.90;;;;;;5060054;28;20057;-56
2023/05/02 01:36:03;;;;;;;11.05;3.13;;;10.70;99.90;;;;;;5062476;28;20049;-57
2023/05/02 01:38:30;;;;;;;11.13;3.03;;;10.70;99.90;;;;;;5057117;28;20041;-56
2023/05/02 01:41:02;;;;;;;10.10;2.80;;;10.70;99.90;;;;;;5055621;28;20037;-57
2023/05/02 01:43:29;;;;;;;7.20;2.85;;;10.70;99.90;;;;;;5062365;28;20040;-57
2023/05/02 01:45:57;;;;;;;7.30;2.65;;;10.70;99.90;;;;;;5025103;28;20095;-57
2023/05/02 01:48:25;;;;;;;9.85;3.10;;;10.70;99.90;;;;;;5043679;28;20048;-57
2023/05/02 01:50:51;;;;;;;11.38;2.88;;;10.60;99.90;;;;;;5060751;28;20100;-57
2023/05/02 01:53:17;;;;;;;8.70;2.78;;;10.70;99.90;;;;;;5062836;28;20063;-56
2023/05/02 01:55:45;;;;;;;9.32;2.65;;;10.70;99.90;;;;;;5061599;28;20083;-57
2023/05/02 01:58:12;;;;;;;7.30;2.22;;;10.70;99.90;;;;;;5043242;28;20308;-57
2023/05/02 02:00:39;;;;;;;8.68;2.95;;;10.60;99.90;;;;;;5041562;28;20409;-57
2023/05/02 02:03:08;;;;;;;9.52;2.53;;;10.60;99.90;;;;;;5042717;28;20056;-56
2023/05/02 02:05:35;;;;;;;10.00;2.90;;;10.60;99.90;;;;;;5042954;28;20041;-56
2023/05/02 02:08:01;;;;;;;10.00;2.80;;;10.60;99.90;;;;;;5042048;28;20064;-57
2023/05/02 02:10:30;;;;;;;6.53;2.45;;;10.60;99.90;;;;;;5043717;28;20119;-57
2023/05/02 02:13:05;;;;;;;8.90;2.63;;;10.50;99.90;;;;;;5049505;28;20044;-57
2023/05/02 02:15:35;;;;;;;7.10;2.77;;;10.60;99.90;;;;;;5061862;28;20052;-58
2023/05/02 02:18:08;;;;;;;7.03;2.28;;;10.50;99.90;;;;;;5061065;28;20311;-56
2023/05/02 02:20:34;;;;;;;10.20;2.65;;;10.60;99.90;;;;;;5045481;28;20041;-56
2023/05/02 02:23:03;;;;;;;5.38;2.53;;;10.50;99.90;;;;;;5048964;28;20180;-56
2023/05/02 02:25:30;;;;;;;6.68;2.40;;;10.60;99.90;;;;;;5041056;28;20065;-57
2023/05/02 02:27:56;;;;;;;4.28;2.30;;;10.50;99.90;;;;;;5043238;28;20029;-56
2023/05/02 02:30:22;;;;;;;6.43;2.10;;;10.50;99.90;;;;;;5045302;28;20037;-57
2023/05/02 02:32:48;;;;;;;5.90;2.80;;;10.50;99.90;;;;;;5047099;28;20187;-56
2023/05/02 02:35:14;;;;;;;10.10;3.08;;;10.50;99.90;;;;;;5048367;28;20053;-56
2023/05/02 02:38:04;;;;;;;7.63;2.28;;;10.50;99.90;;;;;;5055932;28;20433;-57
2023/05/02 02:40:36;;;;;;;4.72;1.85;;;10.40;99.90;;;;;;5060602;28;20106;-57
2023/05/02 02:43:09;;;;;;;6.40;2.17;;;10.40;99.90;;;;;;5049511;28;20045;-56
2023/05/02 02:45:47;;;;;;;8.23;2.25;;;10.40;99.90;;;;;;5042096;28;20056;-57
2023/05/02 02:48:29;;;;;;;7.80;2.63;;;10.40;99.90;;;;;;5061055;28;20105;-56
2023/05/02 02:51:14;;;;;;;4.20;1.90;;;10.40;99.90;;;;;;5060272;28;20044;-56
2023/05/02 02:54:05;;;;;;;12.53;4.27;;;10.40;99.90;;;;;;5054666;28;20176;-56
2023/05/02 02:56:46;;;;;;;10.00;3.42;;;10.30;99.90;;;;;;5048788;28;20097;-56
2023/05/02 02:59:22;;;;;;;12.23;4.05;;;10.90;99.90;;;;;;5060666;28;20516;-57
2023/05/02 03:01:56;;;;;;;13.15;3.85;;;10.00;99.90;;;;;;5059930;28;20528;-57
2023/05/02 03:04:23;;;;;;;18.95;4.57;;;9.90;99.90;;;;;;5059601;28;20567;-56
2023/05/02 03:06:49;;;;;;;14.85;4.05;;;9.80;99.90;;;;;;5048106;28;20045;-56
2023/05/02 03:09:19;;;;;;;16.20;3.85;;;9.70;99.90;;;;;;5054814;28;20127;-56
2023/05/02 03:11:47;;;;;;;17.95;5.05;;;9.60;99.90;;;;;;5051868;28;20072;-58
2023/05/02 03:14:13;;;;;;;19.10;4.50;;;9.60;99.90;;;;;;5043997;28;20093;-56
2023/05/02 03:16:39;;;;;;;18.42;4.22;;;9.50;99.90;;;;;;5056284;28;20049;-57
2023/05/02 03:19:07;;;;;;;18.92;4.43;;;9.50;99.90;;;;;;5059036;28;20041;-56
2023/05/02 03:21:34;;;;;;;17.95;4.80;;;9.40;99.90;;;;;;5048646;28;20044;-56
2023/05/02 03:24:01;;;;;;;17.80;4.10;;;9.40;99.90;;;;;;5074137;28;20068;-57
2023/05/02 03:26:27;;;;;;;24.73;5.05;;;9.40;99.90;;;;;;5054211;28;20079;-56
2023/05/02 03:28:53;;;;;;;21.98;4.65;;;9.30;99.90;;;;;;5061096;28;20060;-57
2023/05/02 03:31:20;;;;;;;20.00;5.30;;;9.30;99.90;;;;;;5053157;28;20045;-57
2023/05/02 03:33:46;;;;;;;25.05;4.70;;;9.20;99.90;;;;;;5059730;28;20083;-56
2023/05/02 03:36:12;;;;;;;16.52;4.35;;;9.20;99.90;;;;;;5060014;28;20040;-54
2023/05/02 03:38:37;;;;;;;23.13;5.05;;;9.10;99.90;;;;;;5057510;28;20055;-56
2023/05/02 03:41:03;;;;;;;21.35;4.35;;;9.00;99.90;;;;;;5060647;28;20087;-57
2023/05/02 03:43:29;;;;;;;22.45;4.90;;;9.00;99.90;;;;;;5050012;28;20049;-56
2023/05/02 03:45:55;;;;;;;21.08;4.10;;;8.90;99.90;;;;;;5048483;28;20040;-57
2023/05/02 03:48:21;;;;;;;20.13;4.22;;;8.90;99.90;;;;;;5049044;28;20041;-56
2023/05/02 03:50:47;;;;;;;26.48;4.70;;;8.90;99.90;;;;;;5057464;28;20033;-56
2023/05/02 03:53:14;;;;;;;18.15;4.70;;;8.80;99.90;;;;;;5056541;28;20044;-56
2023/05/02 03:55:41;;;;;;;17.75;3.88;;;8.70;99.90;;;;;;5039598;28;20117;-56
2023/05/02 03:58:08;;;;;;;14.65;3.50;;;8.70;99.90;;;;;;5041036;28;20075;-55
2023/05/02 04:00:34;;;;;;;21.95;4.40;;;8.70;99.90;;;;;;5039302;28;20097;-57
2023/05/02 04:03:01;;;;;;;23.20;4.40;;;8.70;99.90;;;;;;5040540;28;20076;-56
2023/05/02 04:05:27;;;;;;;17.35;4.65;;;8.70;99.90;;;;;;5045224;28;20073;-55
2023/05/02 04:07:53;;;;;;;14.23;3.63;;;8.70;99.90;;;;;;5041175;28;20507;-56
2023/05/02 04:10:18;;;;;;;18.02;3.80;;;8.70;99.90;;;;;;5040109;28;20077;-56
2023/05/02 04:12:44;;;;;;;19.30;4.20;;;8.70;99.90;;;;;;5039421;28;20500;-57
2023/05/02 04:15:10;;;;;;;18.92;3.25;;;8.60;99.90;;;;;;5040290;28;20041;-56
2023/05/02 04:17:36;;;;;;;17.70;4.10;;;8.60;99.90;;;;;;5039529;28;20046;-56
2023/05/02 04:20:03;;;;;;;18.48;3.72;;;8.60;99.90;;;;;;5052255;28;20083;-56
2023/05/02 04:22:29;;;;;;;21.63;4.72;;;8.60;99.90;;;;;;5057453;28;20045;-56
2023/05/02 04:24:55;;;;;;;14.90;3.42;;;8.60;99.90;;;;;;5042586;28;20044;-56
2023/05/02 04:27:21;;;;;;;15.60;3.70;;;8.60;99.90;;;;;;5060216;28;20148;-55
2023/05/02 04:29:50;;;;;;;15.70;3.50;;;8.50;99.90;;;;;;5055924;28;20120;-56
2023/05/02 04:32:16;;;;;;;14.50;4.03;;;8.60;99.90;;;;;;5050057;28;20057;-56
2023/05/02 04:34:41;;;;;;;11.52;3.28;;;8.50;99.90;;;;;;5054418;28;20388;-56
2023/05/02 04:37:07;;;;;;;12.75;3.20;;;8.50;99.90;;;;;;5059920;28;20161;-56
2023/05/02 04:39:33;;;;;;;15.90;3.08;;;8.50;99.90;;;;;;5056257;28;20037;-60
2023/05/02 04:42:00;;;;;;;15.82;3.08;;;8.50;99.90;;;;;;5043013;28;20065;-56
2023/05/02 04:44:26;;;;;;;15.63;3.60;;;8.60;99.90;;;;;;5071259;28;20568;-56
2023/05/02 04:46:52;;;;;;;18.90;3.65;;;8.40;99.90;;;;;;5045407;28;20400;-56
2023/05/02 04:49:17;;;;;;;15.73;3.25;;;8.40;99.90;;;;;;5055741;28;20072;-56
2023/05/02 04:51:43;;;;;;;13.70;2.97;;;8.40;99.90;;;;;;5042892;28;20056;-56
2023/05/02 04:54:09;;;;;;;10.75;3.10;;;8.40;99.90;;;;;;5042870;28;20045;-57
2023/05/02 04:56:35;;;;;;;13.73;3.33;;;8.30;99.90;;;;;;5043886;28;20081;-56
2023/05/02 04:59:00;;;;;;;12.80;3.38;;;8.30;99.90;;;;;;5043236;28;20053;-56
2023/05/02 05:01:29;;;;;;;15.15;3.28;;;8.40;99.90;;;;;;5052201;28;20041;-56
2023/05/02 05:03:55;;;;;;;9.93;2.53;;;8.30;99.90;;;;;;5062873;28;20033;-57
2023/05/02 05:06:21;;;;;;;12.52;3.08;;;8.30;99.90;;;;;;5058982;28;20097;-57
2023/05/02 05:08:47;;;;;;;12.88;2.50;;;8.30;99.90;;;;;;5062457;28;20434;-56
2023/05/02 05:11:14;;;;;;;13.57;3.50;;;8.30;99.90;;;;;;5046318;28;20057;-56
2023/05/02 05:13:40;;;;;;;14.63;3.45;;;8.30;99.90;;;;;;5043049;28;20042;-57
2023/05/02 05:16:07;;;;;;;12.73;2.63;;;8.30;99.90;;;;;;5043399;28;20050;-58
2023/05/02 05:18:39;;;;;;;13.27;2.75;;;8.30;99.90;;;;;;5044599;28;20396;-57
2023/05/02 05:21:08;;;;;;;14.45;3.13;;;8.30;99.90;;;;;;5054745;28;20040;-56
2023/05/02 05:23:36;;;;;;;9.18;2.63;;;8.30;99.90;;;;;;5063667;28;20064;-56
2023/05/02 05:26:20;;;;;;;15.35;2.70;;;8.40;99.90;;;;;;5061523;28;20092;-56
2023/05/02 05:28:45;;;;;;;12.07;3.00;;;8.40;99.90;;;;;;5043549;28;20045;-56
2023/05/02 05:31:15;;;;;;;14.10;2.58;;;8.30;99.90;;;;;;5053984;28;20060;-55
2023/05/02 05:33:41;;;;;;;9.07;2.45;;;8.30;99.90;;;;;;5062114;28;20041;-56
2023/05/02 05:36:11;;;;;;;9.45;1.90;;;8.40;99.90;;;;;;5062980;28;20094;-56
2023/05/02 05:38:37;;;;;;;9.98;2.05;;;8.40;99.90;;;;;;5050225;28;20062;-56
2023/05/02 05:41:04;;;;;;;10.15;2.17;;;8.30;99.90;;;;;;5047047;28;20038;-56
2023/05/02 05:43:30;;;;;;;10.95;2.28;;;8.30;99.90;;;;;;5046718;28;20045;-56
2023/05/02 05:45:56;;;;;;;10.95;2.30;;;8.30;99.90;;;;;;5047787;28;20128;-57
2023/05/02 05:48:23;;;;;;;8.35;2.15;;;8.30;99.90;;;;;;5054460;28;20041;-57
2023/05/02 05:50:48;;;;;;;8.82;2.28;;;8.30;99.90;;;;;;5051896;28;20053;-56
2023/05/02 05:53:14;;;;;;;6.97;2.00;;;8.40;99.90;;;;;;5051340;28;20068;-57
2023/05/02 05:55:41;;;;;;;6.80;1.83;;;8.40;99.90;;;;;;5061310;28;20428;-56
2023/05/02 05:58:07;;;;;;;9.35;2.28;;;8.30;99.90;;;;;;5061735;28;20056;-55
2023/05/02 06:00:37;;;;;;;9.13;1.98;;;8.40;99.90;;;;;;5058986;28;20033;-56
2023/05/02 06:03:02;;;;;;;8.93;2.25;;;8.50;99.90;;;;;;5061183;28;20109;-56
2023/05/02 06:05:29;;;;;;;5.07;1.90;;;8.60;99.90;;;;;;5053504;28;20033;-55
2023/05/02 06:07:55;;;;;;;10.00;2.08;;;8.70;99.90;;;;;;5058011;28;20072;-55
2023/05/02 06:10:21;;;;;;;6.53;1.73;;;8.70;99.90;;;;;;5056862;28;20033;-56
2023/05/02 06:12:46;;;;;;;7.10;2.10;;;8.80;99.90;;;;;;5054492;28;20052;-57
2023/05/02 06:15:12;;;;;;;8.82;2.50;;;8.90;99.90;;;;;;5061084;28;20041;-56
2023/05/02 06:17:38;;;;;;;5.50;2.00;;;8.60;99.90;;;;;;5047248;28;20075;-55
2023/05/02 06:20:05;;;;;;;9.82;2.47;;;8.90;99.90;;;;;;5049039;28;20437;-56
2023/05/02 06:22:31;;;;;;;7.20;2.00;;;9.00;99.90;;;;;;5061601;28;20041;-56
2023/05/02 06:24:56;;;;;;;7.35;2.00;;;9.00;99.90;;;;;;5046774;28;20048;-56
2023/05/02 06:27:22;;;;;;;7.03;2.00;;;9.10;99.90;;;;;;5057099;28;20071;-56
2023/05/02 06:29:50;;;;;;;7.55;1.88;;;9.10;99.90;;;;;;5055208;28;20033;-57
2023/05/02 06:32:16;;;;;;;11.05;2.60;;;9.20;99.90;;;;;;5060077;28;20041;-56
2023/05/02 06:34:42;;;;;;;7.43;2.00;;;9.30;99.90;;;;;;5054796;28;20050;-56
2023/05/02 06:37:07;;;;;;;9.05;2.38;;;9.40;99.90;;;;;;5042110;28;20050;-57
2023/05/02 06:39:33;;;;;;;6.93;2.42;;;9.40;99.90;;;;;;5059937;28;20037;-56
2023/05/02 06:41:59;;;;;;;13.60;2.78;;;9.50;99.90;;;;;;5041629;28;20065;-56
2023/05/02 06:44:25;;;;;;;9.30;2.55;;;9.70;99.90;;;;;;5053897;28;20416;-57
2023/05/02 06:46:50;;;;;;;9.18;2.13;;;10.00;99.90;;;;;;5060951;28;20672;-56
2023/05/02 06:49:16;;;;;;;6.90;2.20;;;10.40;99.90;;;;;;5057592;28;20048;-56
2023/05/02 06:51:42;;;;;;;10.55;2.28;;;10.70;99.90;;;;;;5060682;28;20132;-57
2023/05/02 06:54:08;;;;;;;9.73;2.60;;;10.60;99.90;;;;;;5052165;28;20045;-56
2023/05/02 06:56:34;;;;;;;6.13;1.80;;;10.80;99.90;;;;;;5053165;28;20073;-56
2023/05/02 06:58:59;;;;;;;9.73;2.17;;;10.10;99.90;;;;;;5059027;28;20044;-56
2023/05/02 07:01:25;;;;;;;7.53;2.28;;;10.10;99.90;;;;;;5060782;28;20052;-56
2023/05/02 07:03:51;;;;;;;8.10;2.22;;;10.20;99.90;;;;;;5060779;28;20051;-56
2023/05/02 07:06:17;;;;;;;11.98;2.30;;;10.30;99.90;;;;;;5061854;28;20203;-56
2023/05/02 07:08:43;;;;;;;8.68;2.20;;;10.30;99.90;;;;;;5060560;28;20056;-56
2023/05/02 07:11:08;;;;;;;7.55;1.95;;;10.30;99.90;;;;;;5061011;28;20128;-56
2023/05/02 07:13:34;;;;;;;11.60;3.00;;;10.20;99.90;;;;;;5060173;28;20037;-57
2023/05/02 07:16:00;;;;;;;8.00;2.28;;;10.20;99.90;;;;;;5061048;28;20073;-57
2023/05/02 07:18:26;;;;;;;9.00;2.20;;;10.20;99.90;;;;;;5061236;28;20128;-56
2023/05/02 07:20:51;;;;;;;8.23;2.20;;;10.30;99.90;;;;;;5056096;28;20037;-57
2023/05/02 07:23:17;;;;;;;4.05;1.52;;;10.30;99.90;;;;;;5047211;28;20091;-57
2023/05/02 07:25:43;;;;;;;6.50;2.10;;;10.30;99.90;;;;;;5051533;28;20396;-56
2023/05/02 07:28:08;;;;;;;13.63;2.33;;;10.20;99.90;;;;;;5042630;28;20080;-57
2023/05/02 07:30:34;;;;;;;9.32;2.20;;;10.10;99.90;;;;;;5055853;28;20398;-56
2023/05/02 07:33:00;;;;;;;9.98;2.55;;;10.20;99.90;;;;;;5056170;28;20179;-56
2023/05/02 07:35:26;;;;;;;9.93;2.50;;;10.20;99.90;;;;;;5056820;28;20049;-57
2023/05/02 07:37:51;;;;;;;10.13;2.83;;;10.10;99.90;;;;;;5040409;28;20056;-56
2023/05/02 07:40:17;;;;;;;9.38;2.85;;;10.10;99.90;;;;;;5056754;28;20071;-57
2023/05/02 07:42:43;;;;;;;8.38;2.60;;;10.20;99.90;;;;;;5059274;28;20044;-57
2023/05/02 07:45:09;;;;;;;7.82;2.42;;;10.20;99.90;;;;;;5057982;28;20049;-57
2023/05/02 07:47:35;;;;;;;6.88;2.30;;;10.20;99.90;;;;;;5050502;28;20037;-57
2023/05/02 07:50:03;;;;;;;9.93;2.33;;;10.30;99.90;;;;;;5049064;28;20454;-58
2023/05/02 07:52:29;;;;;;;19.10;3.20;;;10.30;99.90;;;;;;5047126;28;20050;-58
2023/05/02 07:54:55;;;;;;;11.18;2.60;;;10.90;99.90;;;;;;5045373;28;20041;-58
2023/05/02 07:57:21;;;;;;;9.10;2.13;;;10.40;99.90;;;;;;5052464;28;20061;-58
2023/05/02 07:59:46;;;;;;;9.20;2.53;;;10.40;99.90;;;;;;5043338;28;20063;-58
2023/05/02 08:02:12;;;;;;;6.75;2.22;;;10.50;99.90;;;;;;5053607;28;20046;-58
2023/05/02 08:04:39;;;;;;;6.15;2.50;;;10.40;99.90;;;;;;5049812;28;20051;-58
2023/05/02 08:07:05;;;;;;;8.07;2.20;;;10.40;99.90;;;;;;5055165;28;20037;-57
2023/05/02 08:09:31;;;;;;;6.97;2.25;;;10.30;99.90;;;;;;5056830;28;20155;-57
2023/05/02 08:11:57;;;;;;;10.80;2.70;;;10.30;99.90;;;;;;5057856;28;20036;-58
2023/05/02 08:14:22;;;;;;;9.93;2.40;;;10.40;99.90;;;;;;5055992;28;20083;-59
2023/05/02 08:16:48;;;;;;;9.60;2.53;;;10.30;99.90;;;;;;5050691;28;20049;-58
2023/05/02 08:19:14;;;;;;;13.32;2.88;;;10.30;99.90;;;;;;5052089;28;20033;-58
2023/05/02 08:21:41;;;;;;;8.25;2.10;;;10.30;99.80;;;;;;5048668;28;20051;-59
2023/05/02 08:24:06;;;;;;;9.30;2.03;;;10.30;99.70;;;;;;5029549;28;20045;-57
2023/05/02 08:26:32;;;;;;;6.00;2.45;;;10.50;99.80;;;;;;5050620;28;20044;-58
2023/05/02 08:28:58;;;;;;;8.07;2.08;;;10.70;99.90;;;;;;5045892;28;20449;-59
2023/05/02 08:31:24;;;;;;;5.55;2.15;;;10.80;99.90;;;;;;5048353;28;20049;-59
2023/05/02 08:33:51;;;;;;;11.48;2.40;;;11.10;99.20;;;;;;5053129;28;20087;-58
2023/05/02 08:36:18;;;;;;;9.38;2.80;;;11.40;99.40;;;;;;5045135;28;20061;-58
2023/05/02 08:38:45;;;;;;;9.68;2.35;;;11.60;98.90;;;;;;5055725;28;20055;-58
2023/05/02 08:41:14;;;;;;;7.03;2.10;;;11.70;99.00;;;;;;5048756;28;20097;-58
2023/05/02 08:43:40;;;;;;;5.25;2.08;;;11.80;98.30;;;;;;5042615;28;20061;-58
2023/05/02 08:46:07;;;;;;;7.10;2.10;;;11.80;98.10;;;;;;5057890;28;20064;-59
2023/05/02 08:48:35;;;;;;;22.80;2.80;;;11.70;98.50;;;;;;5055370;28;20053;-58
2023/05/02 08:51:02;;;;;;;9.68;2.53;;;11.60;98.30;;;;;;5056623;28;20052;-58
2023/05/02 08:53:33;;;;;;;6.55;2.38;;;11.40;98.60;;;;;;5059187;28;20160;-58
2023/05/02 08:55:59;;;;;;;7.68;2.35;;;11.30;98.90;;;;;;5048272;28;20045;-59
2023/05/02 08:58:25;;;;;;;11.45;2.88;;;11.30;99.80;;;;;;5049258;28;20034;-58
2023/05/02 09:00:51;;;;;;;13.18;2.90;;;11.30;99.00;;;;;;5046207;28;20501;-58
2023/05/02 09:03:32;;;;;;;10.52;2.60;;;11.20;99.00;;;;;;5057557;28;20047;-58
2023/05/02 09:06:09;;;;;;;7.65;2.40;;;11.30;99.20;;;;;;5058604;28;20071;-58
2023/05/02 09:08:36;;;;;;;8.63;2.42;;;11.30;99.30;;;;;;5057360;28;20112;-59
2023/05/02 09:11:02;;;;;;;6.82;2.80;;;11.50;99.60;;;;;;5058525;28;20048;-59
2023/05/02 09:13:34;;;;;;;10.77;2.58;;;11.70;99.50;;;;;;5054483;28;20071;-59
2023/05/02 09:16:06;;;;;;;4.78;2.15;;;11.90;98.90;;;;;;5048827;28;20505;-59
2023/05/02 09:18:36;;;;;;;10.27;2.45;;;11.90;98.20;;;;;;5054067;28;20048;-59
2023/05/02 09:21:10;;;;;;;10.93;2.83;;;11.80;98.60;;;;;;5039155;28;20053;-58
2023/05/02 09:23:42;;;;;;;10.30;2.90;;;11.70;98.80;;;;;;5045493;28;20771;-59
2023/05/02 09:26:20;;;;;;;8.73;2.20;;;11.50;99.00;;;;;;5054088;28;20045;-58
2023/05/02 09:28:48;;;;;;;9.23;2.95;;;11.50;98.90;;;;;;5051706;28;20108;-59
2023/05/02 09:31:16;;;;;;;9.07;2.70;;;11.30;99.20;;;;;;5058003;28;20047;-58
2023/05/02 09:33:42;;;;;;;6.80;2.60;;;11.20;99.50;;;;;;5058615;28;20044;-58
2023/05/02 09:36:12;;;;;;;6.88;2.17;;;11.20;99.80;;;;;;5058745;28;20048;-59
2023/05/02 09:38:38;;;;;;;7.47;2.40;;;11.00;99.70;;;;;;5057901;28;20049;-59
2023/05/02 09:41:04;;;;;;;8.48;2.40;;;10.90;99.80;;;;;;5055134;28;20083;-59
2023/05/02 09:43:31;;;;;;;9.38;2.35;;;10.80;99.90;;;;;;5051685;28;20108;-60
2023/05/02 09:46:05;;;;;;;8.50;2.60;;;10.80;99.90;;;;;;5051754;28;20053;-59
2023/05/02 09:48:49;;;;;;;7.82;2.58;;;10.80;99.90;;;;;;5056530;28;20041;-58
2023/05/02 09:51:20;;;;;;;6.40;2.65;;;10.80;99.90;;;;;;5048879;28;20053;-58
2023/05/02 09:53:46;;;;;;;10.63;2.70;;;11.00;99.90;;;;;;5054153;28;20051;-58
2023/05/02 09:56:12;;;;;;;9.90;2.50;;;11.10;99.90;;;;;;5049577;28;20492;-58
2023/05/02 09:58:38;;;;;;;9.60;2.20;;;11.20;99.70;;;;;;5053145;28;20584;-59
2023/05/02 10:01:04;;;;;;;6.55;2.80;;;11.30;99.70;;;;;;5060634;28;20076;-58
2023/05/02 10:03:31;;;;;;;11.80;3.20;;;11.40;99.90;;;;;;5057915;28;20059;-58
2023/05/02 10:05:57;;;;;;;8.45;2.72;;;11.60;99.90;;;;;;5051569;28;20052;-59
2023/05/02 10:08:28;;;;;;;9.68;2.53;;;11.70;98.80;;;;;;5051166;28;20041;-58
2023/05/02 10:10:57;;;;;;;8.55;2.40;;;11.60;97.70;;;;;;5054400;28;20049;-59
2023/05/02 10:13:30;;;;;;;6.57;2.28;;;11.70;98.30;;;;;;5054804;28;20044;-59
2023/05/02 10:16:02;;;;;;;4.82;1.75;;;11.80;97.90;;;;;;5057286;28;20334;-58
2023/05/02 10:18:35;;;;;;;8.73;1.95;;;12.00;98.20;;;;;;5058358;28;20520;-59
2023/05/02 10:21:07;;;;;;;7.35;2.58;;;12.20;97.00;;;;;;5052498;28;20037;-59
2023/05/02 10:23:33;;;;;;;9.45;2.20;;;12.30;96.10;;;;;;5052872;28;20274;-59
2023/05/02 10:25:59;;;;;;;8.77;2.63;;;12.20;95.50;;;;;;5051808;28;20048;-59
2023/05/02 10:28:26;;;;;;;7.25;1.90;;;12.20;96.10;;;;;;5043209;28;20040;-59
2023/05/02 10:30:52;;;;;;;9.35;2.15;;;12.20;95.30;;;;;;5044252;28;20041;-58
2023/05/02 10:33:20;;;;;;;7.68;2.17;;;12.30;95.60;;;;;;5056817;28;20049;-59
2023/05/02 10:35:46;;;;;;;7.35;2.20;;;12.30;94.90;;;;;;5056736;28;20103;-58
2023/05/02 10:38:18;;;;;;;7.25;1.90;;;12.40;95.50;;;;;;5052471;28;20083;-58
2023/05/02 10:40:54;;;;;;;5.97;2.03;;;12.60;95.30;;;;;;5056533;28;20049;-58
2023/05/02 10:43:23;;;;;;;7.18;2.10;;;12.80;94.90;;;;;;5058821;28;20033;-58
2023/05/02 10:45:50;;;;;;;7.20;2.42;;;12.90;95.40;;;;;;5051278;28;20037;-58
2023/05/02 10:48:17;;;;;;;6.25;1.88;;;13.10;94.90;;;;;;5056705;28;20045;-58
2023/05/02 10:50:50;;;;;;;4.57;1.98;;;13.30;94.50;;;;;;5044971;28;20620;-58
2023/05/02 10:53:30;;;;;;;9.57;2.08;;;13.50;94.00;;;;;;5055563;28;20045;-58
2023/05/02 10:56:20;;;;;;;5.88;2.15;;;13.60;93.30;;;;;;5052720;28;20044;-58
2023/05/02 10:58:50;;;;;;;5.88;2.00;;;13.70;92.90;;;;;;5051173;28;20055;-58
2023/05/02 11:01:28;;;;;;;5.30;2.00;;;13.60;93.00;;;;;;5053613;28;20115;-58
2023/05/02 11:04:10;;;;;;;3.75;1.65;;;13.60;92.30;;;;;;5051159;28;20052;-59
2023/05/02 11:07:04;;;;;;;6.50;2.10;;;13.90;92.50;;;;;;5050688;28;20045;-58
2023/05/02 11:09:31;;;;;;;7.63;1.80;;;14.00;90.80;;;;;;5051135;28;20049;-58
2023/05/02 11:11:57;;;;;;;4.40;1.95;;;13.80;90.80;;;;;;5053131;28;20042;-58
2023/05/02 11:14:28;;;;;;;7.15;1.95;;;13.60;90.80;;;;;;5055617;28;20406;-58
2023/05/02 11:17:05;;;;;;;7.43;2.05;;;13.50;91.20;;;;;;5054008;28;20049;-58
2023/05/02 11:19:37;;;;;;;5.90;1.73;;;13.50;91.60;;;;;;5047123;28;20053;-58
2023/05/02 11:22:18;;;;;;;6.80;2.00;;;13.50;91.00;;;;;;5057721;28;20053;-58
2023/05/02 11:24:46;;;;;;;5.53;1.80;;;13.50;90.30;;;;;;5042039;28;20041;-58
2023/05/02 11:27:30;;;;;;;7.20;1.83;;;13.50;91.30;;;;;;5055188;28;20098;-58
2023/05/02 11:29:57;;;;;;;6.18;2.08;;;13.60;90.70;;;;;;5049382;28;20040;-57
2023/05/02 11:32:26;;;;;;;4.57;1.77;;;13.60;91.30;;;;;;5057199;28;20064;-58
2023/05/02 11:34:52;;;;;;;8.57;1.90;;;13.50;90.50;;;;;;5051346;28;20068;-59
2023/05/02 11:37:19;;;;;;;4.70;1.58;;;13.50;91.10;;;;;;5054796;28;20092;-57
2023/05/02 11:39:46;;;;;;;6.32;1.67;;;13.50;91.30;;;;;;5050046;28;20080;-58
2023/05/02 11:42:31;;;;;;;8.85;1.50;;;13.50;90.60;;;;;;5050724;28;20097;-58
2023/05/02 11:44:58;;;;;;;5.57;1.27;;;13.60;90.80;;;;;;5051122;28;20049;-58
2023/05/02 11:47:26;;;;;;;4.22;1.55;;;13.60;90.70;;;;;;5053612;28;20128;-58
2023/05/02 11:49:56;;;;;;;6.93;1.90;;;13.60;91.00;;;;;;5049671;28;20199;-57
2023/05/02 11:52:23;;;;;;;4.45;1.50;;;13.70;90.40;;;;;;5057465;28;20045;-58
2023/05/02 11:54:52;;;;;;;4.88;1.40;;;13.70;90.10;;;;;;5041556;28;20120;-58
2023/05/02 11:57:18;;;;;;;5.00;1.50;;;13.70;88.20;;;;;;5057219;28;20037;-58
2023/05/02 11:59:56;;;;;;;5.15;1.60;;;13.70;88.40;;;;;;5058205;28;20442;-58
2023/05/02 12:02:42;;;;;;;4.38;1.30;;;13.60;88.80;;;;;;5057771;28;20120;-58
2023/05/02 12:05:10;;;;;;;4.68;1.50;;;13.70;89.90;;;;;;5046859;28;20053;-58
2023/05/02 12:07:40;;;;;;;6.85;1.30;;;13.80;89.40;;;;;;5057333;28;20081;-58
2023/05/02 12:10:09;;;;;;;4.72;1.73;;;14.00;89.80;;;;;;5042093;28;20333;-58
2023/05/02 12:12:37;;;;;;;2.67;1.48;;;14.20;88.90;;;;;;5042039;28;20041;-58
2023/05/02 12:15:09;;;;;;;4.78;1.60;;;14.40;88.00;;;;;;5053390;28;20396;-58
2023/05/02 12:17:41;;;;;;;3.70;1.50;;;14.30;87.20;;;;;;5053680;28;20821;-58
2023/05/02 12:20:09;;;;;;;6.03;1.60;;;14.30;87.50;;;;;;5054060;28;20139;-58
2023/05/02 12:22:35;;;;;;;4.55;1.60;;;14.10;89.10;;;;;;5051054;28;20025;-58
2023/05/02 12:25:04;;;;;;;5.70;1.55;;;14.00;88.20;;;;;;5045488;28;20099;-56
2023/05/02 12:27:32;;;;;;;6.82;1.60;;;14.00;88.90;;;;;;5052511;28;20033;-58
2023/05/02 12:29:58;;;;;;;6.88;1.77;;;14.10;89.80;;;;;;5052908;28;20108;-58
2023/05/02 12:32:31;;;;;;;4.00;1.45;;;14.30;89.20;;;;;;5053330;28;20052;-58
2023/05/02 12:34:57;;;;;;;7.93;1.80;;;14.30;88.70;;;;;;5045946;28;20049;-58
2023/05/02 12:37:25;;;;;;;5.40;1.60;;;14.40;88.30;;;;;;5051538;28;20057;-58
2023/05/02 12:39:54;;;;;;;5.35;1.02;;;14.60;88.80;;;;;;5047714;28;20041;-58
2023/05/02 12:42:23;;;;;;;4.55;1.50;;;14.80;88.00;;;;;;5053330;28;20041;-58
2023/05/02 12:44:52;;;;;;;4.95;1.73;;;14.80;87.20;;;;;;5047289;28;20038;-58
2023/05/02 12:47:19;;;;;;;3.22;1.55;;;14.80;87.20;;;;;;5053932;28;20047;-58
2023/05/02 12:49:52;;;;;;;6.10;1.60;;;14.80;86.60;;;;;;5054962;28;20132;-59
2023/05/02 12:52:19;;;;;;;6.07;1.55;;;14.80;86.80;;;;;;5041483;28;20049;-58